Time;durP1;ratioP1;P1;durP2;ratioP2;P2;SDS_P1;SDS_P2;PMS_P1;PMS_P2;Temp;Humidity;BMP_temperature;BMP_pressure;BME280_temperature;BME280_humidity;BME280_pressure;Samples;Min_cycle;Max_cycle;Signal;HPM_P1;HPM_P2
2021/06/26 00:00:53;;;;;;;31.92;17.05;;;;;;;;;;4984894;28;20090;-75
2021/06/26 00:03:20;;;;;;;29.70;17.38;;;;;;;;;;4971364;28;20026;-74
2021/06/26 00:05:46;;;;;;;37.60;17.63;;;;;;;;;;4974002;28;20030;-76
2021/06/26 00:08:12;;;;;;;30.02;16.15;;;;;;;;;;4972407;28;20021;-74
2021/06/26 00:10:38;;;;;;;29.63;16.05;;;;;;;;;;4973833;28;20066;-74
2021/06/26 00:13:03;;;;;;;33.88;17.67;;;;;;;;;;4972759;28;20033;-75
2021/06/26 00:15:29;;;;;;;25.15;15.38;;;;;;;;;;4988601;28;20487;-75
2021/06/26 00:17:54;;;;;;;32.40;17.65;;;;;;;;;;4973766;28;20600;-75
2021/06/26 00:20:20;;;;;;;28.33;16.08;;;;;;;;;;4973541;28;20485;-74
2021/06/26 00:22:47;;;;;;;30.00;17.27;;;;;;;;;;4988633;28;20031;-75
2021/06/26 00:25:13;;;;;;;31.33;17.25;;;;;;;;;;4973502;28;20038;-77
2021/06/26 00:27:38;;;;;;;29.80;18.92;;;;;;;;;;4973673;28;20033;-74
2021/06/26 00:30:04;;;;;;;29.98;16.88;;;;;;;;;;4973965;28;20081;-75
2021/06/26 00:32:30;;;;;;;35.20;17.85;;;;;;;;;;4973279;28;20026;-75
2021/06/26 00:34:56;;;;;;;27.95;17.15;;;;;;;;;;4973641;28;20023;-75
2021/06/26 00:37:21;;;;;;;27.70;16.65;;;;;;;;;;4973246;28;20038;-75
2021/06/26 00:39:47;;;;;;;33.65;16.88;;;;;;;;;;4972244;28;20074;-76
2021/06/26 00:42:12;;;;;;;30.00;16.05;;;;;;;;;;4973577;28;20023;-75
2021/06/26 00:44:38;;;;;;;27.77;16.80;;;;;;;;;;4973217;28;20038;-76
2021/06/26 00:47:11;;;;;;;33.90;17.50;;;;;;;;;;4971955;28;20138;-75
2021/06/26 00:49:36;;;;;;;25.30;16.38;;;;;;;;;;4973302;28;20034;-75
2021/06/26 00:52:02;;;;;;;35.85;17.88;;;;;;;;;;4973315;28;20387;-75
2021/06/26 00:54:28;;;;;;;30.65;17.55;;;;;;;;;;4972760;28;20590;-75
2021/06/26 00:56:53;;;;;;;29.52;17.00;;;;;;;;;;4971641;28;20054;-74
2021/06/26 00:59:19;;;;;;;26.40;16.45;;;;;;;;;;4971464;28;20387;-75
2021/06/26 01:01:44;;;;;;;25.80;16.05;;;;;;;;;;4988435;28;20034;-74
2021/06/26 01:04:10;;;;;;;29.30;16.63;;;;;;;;;;4972759;28;20087;-74
2021/06/26 01:06:35;;;;;;;34.35;17.10;;;;;;;;;;4972916;28;20427;-75
2021/06/26 01:09:01;;;;;;;29.63;16.45;;;;;;;;;;4972817;28;20479;-75
2021/06/26 01:11:27;;;;;;;27.98;16.45;;;;;;;;;;4972793;28;20062;-75
2021/06/26 01:13:52;;;;;;;28.60;16.90;;;;;;;;;;4987688;28;20478;-75
2021/06/26 01:16:18;;;;;;;31.15;17.02;;;;;;;;;;4987300;28;20054;-74
2021/06/26 01:18:43;;;;;;;28.98;16.48;;;;;;;;;;4971484;28;20066;-75
2021/06/26 01:21:09;;;;;;;27.58;15.43;;;;;;;;;;4972812;28;20491;-75
2021/06/26 01:23:45;;;;;;;26.02;14.18;;;;;;;;;;4972433;28;20476;-75
2021/06/26 01:26:10;;;;;;;24.05;14.15;;;;;;;;;;4972351;28;20390;-74
2021/06/26 01:28:36;;;;;;;22.27;13.50;;;;;;;;;;4972883;28;20042;-75
2021/06/26 01:31:01;;;;;;;24.23;13.32;;;;;;;;;;4972536;28;20042;-75
2021/06/26 01:33:27;;;;;;;26.52;14.48;;;;;;;;;;4972150;28;20045;-75
2021/06/26 01:35:52;;;;;;;21.15;12.98;;;;;;;;;;4972426;28;20031;-75
2021/06/26 01:38:17;;;;;;;23.27;14.52;;;;;;;;;;4970666;28;20114;-75
2021/06/26 01:40:43;;;;;;;22.85;12.95;;;;;;;;;;4972189;28;20030;-74
2021/06/26 01:43:12;;;;;;;26.58;14.18;;;;;;;;;;4972285;28;20042;-74
2021/06/26 01:45:37;;;;;;;21.58;13.18;;;;;;;;;;4972186;28;20026;-75
2021/06/26 01:48:03;;;;;;;18.80;12.05;;;;;;;;;;4970906;28;20545;-76
2021/06/26 01:50:29;;;;;;;29.35;14.20;;;;;;;;;;4972055;28;20069;-76
2021/06/26 01:52:55;;;;;;;16.92;11.73;;;;;;;;;;4972489;28;20034;-76
2021/06/26 01:55:22;;;;;;;18.08;12.20;;;;;;;;;;4970361;28;20089;-75
2021/06/26 01:57:49;;;;;;;20.40;11.68;;;;;;;;;;4971925;28;20049;-74
2021/06/26 02:00:17;;;;;;;21.30;12.30;;;;;;;;;;4971688;28;20034;-74
2021/06/26 02:02:43;;;;;;;22.55;12.75;;;;;;;;;;4971757;28;20039;-75
2021/06/26 02:05:10;;;;;;;21.42;12.27;;;;;;;;;;4971837;28;20034;-74
2021/06/26 02:07:36;;;;;;;21.92;12.27;;;;;;;;;;4971548;28;20393;-77
2021/06/26 02:10:01;;;;;;;17.63;11.82;;;;;;;;;;4971956;28;20031;-77
2021/06/26 02:12:27;;;;;;;18.05;11.98;;;;;;;;;;4971514;28;20069;-75
2021/06/26 02:14:53;;;;;;;19.35;12.45;;;;;;;;;;4970348;28;20043;-76
2021/06/26 02:17:22;;;;;;;18.30;11.88;;;;;;;;;;4971570;28;20796;-76
2021/06/26 02:19:49;;;;;;;22.33;13.10;;;;;;;;;;4971591;28;20043;-77
2021/06/26 02:22:15;;;;;;;25.45;13.13;;;;;;;;;;4971298;28;20039;-74
2021/06/26 02:24:41;;;;;;;19.27;12.02;;;;;;;;;;4971627;28;20335;-75
2021/06/26 02:27:07;;;;;;;22.40;12.18;;;;;;;;;;4969660;28;20033;-74
2021/06/26 02:29:32;;;;;;;24.60;14.00;;;;;;;;;;4969594;28;20027;-74
2021/06/26 02:31:58;;;;;;;22.33;13.02;;;;;;;;;;4971517;28;20632;-74
2021/06/26 02:34:23;;;;;;;17.17;12.02;;;;;;;;;;4971068;28;20086;-74
2021/06/26 02:36:49;;;;;;;20.70;13.02;;;;;;;;;;4986451;28;20085;-73
2021/06/26 02:39:15;;;;;;;22.55;13.15;;;;;;;;;;4971130;28;20066;-73
2021/06/26 02:41:40;;;;;;;22.48;12.65;;;;;;;;;;4971145;28;20065;-73
2021/06/26 02:44:06;;;;;;;30.77;12.57;;;;;;;;;;4969786;28;20034;-73
2021/06/26 02:46:32;;;;;;;20.90;14.10;;;;;;;;;;4969734;28;20027;-74
2021/06/26 02:48:58;;;;;;;28.05;14.93;;;;;;;;;;4969566;28;20041;-74
2021/06/26 02:51:23;;;;;;;27.35;13.90;;;;;;;;;;4970700;28;20034;-74
2021/06/26 02:53:49;;;;;;;22.90;13.57;;;;;;;;;;4970804;28;20054;-73
2021/06/26 02:56:14;;;;;;;23.20;13.18;;;;;;;;;;4969543;28;20498;-74
2021/06/26 02:58:40;;;;;;;19.75;13.45;;;;;;;;;;4970703;28;20026;-74
2021/06/26 03:01:05;;;;;;;28.35;14.02;;;;;;;;;;4985906;28;20027;-73
2021/06/26 03:03:31;;;;;;;22.77;13.32;;;;;;;;;;4970511;28;20452;-74
2021/06/26 03:05:56;;;;;;;21.83;13.70;;;;;;;;;;4970917;28;20107;-75
2021/06/26 03:08:22;;;;;;;23.10;12.90;;;;;;;;;;4969221;28;20537;-73
2021/06/26 03:10:48;;;;;;;27.52;15.18;;;;;;;;;;4971173;28;20049;-74
2021/06/26 03:13:15;;;;;;;29.15;16.35;;;;;;;;;;4970493;28;20403;-74
2021/06/26 03:15:40;;;;;;;31.48;15.30;;;;;;;;;;4969317;28;20022;-73
2021/06/26 03:18:06;;;;;;;24.90;16.35;;;;;;;;;;5001763;28;20587;-74
2021/06/26 03:20:32;;;;;;;35.05;16.38;;;;;;;;;;4970369;28;20495;-74
2021/06/26 03:22:57;;;;;;;26.77;15.50;;;;;;;;;;4970664;28;20034;-75
2021/06/26 03:25:23;;;;;;;28.00;15.57;;;;;;;;;;4970291;28;20023;-74
2021/06/26 03:27:48;;;;;;;29.08;16.10;;;;;;;;;;4985594;28;20169;-74
2021/06/26 03:30:14;;;;;;;26.05;16.58;;;;;;;;;;4970861;28;20109;-73
2021/06/26 03:32:40;;;;;;;28.95;17.27;;;;;;;;;;4969228;28;20387;-73
2021/06/26 03:35:06;;;;;;;26.55;16.55;;;;;;;;;;4969011;28;20118;-73
2021/06/26 03:37:31;;;;;;;29.27;16.25;;;;;;;;;;4970283;28;20033;-73
2021/06/26 03:39:57;;;;;;;33.38;17.25;;;;;;;;;;4972848;28;20038;-74
2021/06/26 03:42:23;;;;;;;28.88;16.40;;;;;;;;;;4973828;28;20034;-73
2021/06/26 03:44:48;;;;;;;30.58;17.63;;;;;;;;;;4972966;28;20042;-74
2021/06/26 03:47:14;;;;;;;32.08;18.00;;;;;;;;;;4973076;28;20033;-73
2021/06/26 03:49:40;;;;;;;28.83;17.35;;;;;;;;;;4972525;28;20383;-75
2021/06/26 03:52:06;;;;;;;31.75;17.75;;;;;;;;;;4974374;28;20263;-74
2021/06/26 03:54:33;;;;;;;26.65;17.13;;;;;;;;;;4973880;28;20054;-76
2021/06/26 03:56:59;;;;;;;33.22;17.90;;;;;;;;;;4974015;28;20027;-76
2021/06/26 03:59:25;;;;;;;31.10;19.02;;;;;;;;;;4972594;28;20105;-77
2021/06/26 04:01:50;;;;;;;29.70;16.08;;;;;;;;;;4974022;28;20467;-76
2021/06/26 04:04:16;;;;;;;30.33;18.30;;;;;;;;;;4974336;28;20117;-76
2021/06/26 04:06:42;;;;;;;35.90;17.92;;;;;;;;;;4973736;28;20026;-76
2021/06/26 04:09:08;;;;;;;31.15;18.23;;;;;;;;;;4974287;28;20035;-75
2021/06/26 04:11:33;;;;;;;27.60;17.00;;;;;;;;;;4972554;28;20088;-76
2021/06/26 04:14:00;;;;;;;27.70;16.83;;;;;;;;;;4973966;28;20030;-76
2021/06/26 04:16:26;;;;;;;32.45;18.40;;;;;;;;;;4973743;28;20023;-75
2021/06/26 04:18:51;;;;;;;27.95;17.55;;;;;;;;;;4975188;28;20395;-75
2021/06/26 04:21:17;;;;;;;27.10;16.52;;;;;;;;;;4975052;28;20062;-73
2021/06/26 04:23:42;;;;;;;29.58;18.02;;;;;;;;;;4973685;28;20026;-74
2021/06/26 04:26:08;;;;;;;32.28;17.55;;;;;;;;;;4973529;28;20069;-75
2021/06/26 04:28:34;;;;;;;33.90;18.65;;;;;;;;;;4988580;28;20054;-73
2021/06/26 04:30:59;;;;;;;33.33;20.55;;;;;;;;;;4973364;28;20041;-74
2021/06/26 04:33:26;;;;;;;30.17;18.40;;;;;;;;;;4973124;28;20399;-73
2021/06/26 04:35:51;;;;;;;27.65;17.08;;;;;;;;;;4973241;28;20088;-74
2021/06/26 04:38:21;;;;;;;29.65;17.92;;;;;;;;;;4973823;28;20479;-75
2021/06/26 04:40:49;;;;;;;33.28;18.80;;;;;;;;;;4973280;28;20033;-74
2021/06/26 04:43:14;;;;;;;31.83;17.38;;;;;;;;;;4971981;28;20031;-75
2021/06/26 04:45:44;;;;;;;28.55;17.35;;;;;;;;;;4973153;28;20038;-75
2021/06/26 04:48:10;;;;;;;32.03;19.20;;;;;;;;;;4973328;28;20061;-74
2021/06/26 04:50:35;;;;;;;31.45;20.10;;;;;;;;;;4972754;28;20093;-75
2021/06/26 04:53:01;;;;;;;29.80;18.50;;;;;;;;;;4973511;28;20030;-75
2021/06/26 04:55:26;;;;;;;29.17;19.25;;;;;;;;;;4971310;28;20089;-75
2021/06/26 04:57:52;;;;;;;29.60;18.33;;;;;;;;;;4973121;28;20086;-75
2021/06/26 05:00:18;;;;;;;31.42;18.70;;;;;;;;;;4973409;28;20102;-75
2021/06/26 05:02:43;;;;;;;27.67;17.58;;;;;;;;;;4972785;28;20475;-74
2021/06/26 05:05:10;;;;;;;33.00;18.38;;;;;;;;;;4972895;28;20034;-75
2021/06/26 05:07:36;;;;;;;34.72;17.65;;;;;;;;;;4972937;28;20715;-74
2021/06/26 05:10:02;;;;;;;33.67;18.00;;;;;;;;;;4972995;28;20102;-74
2021/06/26 05:12:28;;;;;;;27.70;17.85;;;;;;;;;;4987237;28;20085;-75
2021/06/26 05:14:53;;;;;;;33.25;17.45;;;;;;;;;;4972864;28;20423;-75
2021/06/26 05:17:18;;;;;;;36.90;17.42;;;;;;;;;;4972700;28;20061;-75
2021/06/26 05:19:45;;;;;;;35.15;19.10;;;;;;;;;;4987346;28;20042;-75
2021/06/26 05:22:10;;;;;;;35.05;19.83;;;;;;;;;;4971338;28;20065;-75
2021/06/26 05:24:36;;;;;;;29.13;17.67;;;;;;;;;;4972397;28;20027;-74
2021/06/26 05:27:01;;;;;;;28.80;17.38;;;;;;;;;;4971137;28;20347;-74
2021/06/26 05:29:27;;;;;;;30.35;17.48;;;;;;;;;;4972269;28;20113;-74
2021/06/26 05:31:53;;;;;;;27.10;16.38;;;;;;;;;;4971168;28;20180;-76
2021/06/26 05:34:18;;;;;;;31.55;17.40;;;;;;;;;;4972422;28;20034;-75
2021/06/26 05:36:43;;;;;;;26.98;17.35;;;;;;;;;;4972197;28;20491;-74
2021/06/26 05:39:09;;;;;;;24.55;16.65;;;;;;;;;;4972599;28;20027;-74
2021/06/26 05:41:34;;;;;;;26.10;18.10;;;;;;;;;;4970854;28;20498;-74
2021/06/26 05:44:00;;;;;;;29.83;17.10;;;;;;;;;;4972386;28;20072;-75
2021/06/26 05:46:25;;;;;;;26.15;16.70;;;;;;;;;;4972346;28;20078;-75
2021/06/26 05:48:51;;;;;;;25.85;16.00;;;;;;;;;;4971082;28;20501;-75
2021/06/26 05:51:18;;;;;;;25.42;16.52;;;;;;;;;;4971019;28;20027;-75
2021/06/26 05:53:44;;;;;;;25.73;16.30;;;;;;;;;;4970515;28;20027;-75
2021/06/26 05:56:10;;;;;;;32.17;17.38;;;;;;;;;;4970851;28;20549;-75
2021/06/26 05:58:38;;;;;;;27.73;17.85;;;;;;;;;;4971967;28;20030;-76
2021/06/26 06:01:06;;;;;;;24.33;16.25;;;;;;;;;;4971112;28;20100;-75
2021/06/26 06:03:32;;;;;;;25.80;15.18;;;;;;;;;;4971929;28;20129;-75
2021/06/26 06:05:58;;;;;;;25.48;15.23;;;;;;;;;;4986848;28;20037;-74
2021/06/26 06:08:23;;;;;;;28.00;15.50;;;;;;;;;;4970607;28;20058;-76
2021/06/26 06:10:49;;;;;;;20.63;13.27;;;;;;;;;;5002670;28;20038;-75
2021/06/26 06:13:20;;;;;;;21.48;13.88;;;;;;;;;;4970293;28;20022;-75
2021/06/26 06:15:47;;;;;;;20.60;14.13;;;;;;;;;;5001708;28;20046;-75
2021/06/26 06:18:14;;;;;;;21.58;13.40;;;;;;;;;;4970558;28;20101;-74
2021/06/26 06:20:40;;;;;;;22.27;13.88;;;;;;;;;;4971641;28;20077;-75
2021/06/26 06:23:06;;;;;;;23.83;15.07;;;;;;;;;;4986842;28;20035;-75
2021/06/26 06:25:33;;;;;;;19.27;11.93;;;;;;;;;;4971753;28;20041;-74
2021/06/26 06:27:59;;;;;;;19.20;13.43;;;;;;;;;;4971597;28;20471;-75
2021/06/26 06:30:24;;;;;;;16.60;13.05;;;;;;;;;;4971330;28;20047;-75
2021/06/26 06:32:50;;;;;;;23.83;13.93;;;;;;;;;;4969704;28;20034;-75
2021/06/26 06:35:16;;;;;;;18.65;13.45;;;;;;;;;;4971460;28;20463;-75
2021/06/26 06:37:41;;;;;;;17.38;13.07;;;;;;;;;;4971109;28;20037;-75
2021/06/26 06:40:08;;;;;;;25.13;14.65;;;;;;;;;;4969131;28;20039;-75
2021/06/26 06:42:35;;;;;;;21.77;14.98;;;;;;;;;;4970775;28;20403;-75
2021/06/26 06:45:01;;;;;;;23.70;15.90;;;;;;;;;;4971240;28;20031;-76
2021/06/26 06:47:26;;;;;;;21.48;13.77;;;;;;;;;;4971196;28;20042;-77
2021/06/26 06:49:53;;;;;;;21.98;15.10;;;;;;;;;;4971117;28;20431;-75
2021/06/26 06:52:19;;;;;;;18.77;13.93;;;;;;;;;;5002107;28;20475;-74
2021/06/26 06:54:44;;;;;;;20.08;13.93;;;;;;;;;;4970479;28;20061;-76
2021/06/26 06:57:11;;;;;;;20.98;13.95;;;;;;;;;;4969141;28;20455;-75
2021/06/26 06:59:37;;;;;;;24.00;14.52;;;;;;;;;;4970623;28;20058;-75
2021/06/26 07:02:02;;;;;;;20.63;13.30;;;;;;;;;;4969638;28;20022;-75
2021/06/26 07:04:28;;;;;;;21.58;13.77;;;;;;;;;;4970768;28;20372;-75
2021/06/26 07:06:54;;;;;;;22.55;14.38;;;;;;;;;;4969821;28;20015;-75
2021/06/26 07:09:19;;;;;;;22.50;14.00;;;;;;;;;;4969199;28;20501;-74
2021/06/26 07:11:46;;;;;;;20.10;14.52;;;;;;;;;;4969110;28;20106;-76
2021/06/26 07:14:11;;;;;;;20.20;13.27;;;;;;;;;;4969563;28;20054;-74
2021/06/26 07:16:37;;;;;;;21.30;12.68;;;;;;;;;;4970504;28;20062;-75
2021/06/26 07:19:03;;;;;;;19.20;12.82;;;;;;;;;;4969399;28;20027;-75
2021/06/26 07:21:28;;;;;;;22.58;14.48;;;;;;;;;;4970489;28;20491;-76
2021/06/26 07:23:54;;;;;;;20.90;13.60;;;;;;;;;;4969257;28;20061;-75
2021/06/26 07:26:19;;;;;;;21.85;13.82;;;;;;;;;;4970351;28;20398;-75
2021/06/26 07:28:45;;;;;;;24.13;14.02;;;;;;;;;;4970538;28;20058;-75
2021/06/26 07:31:11;;;;;;;19.58;13.00;;;;;;;;;;4970281;28;20045;-75
2021/06/26 07:33:36;;;;;;;16.77;13.48;;;;;;;;;;4968899;28;20037;-75
2021/06/26 07:36:02;;;;;;;24.20;14.13;;;;;;;;;;4970359;28;20551;-76
2021/06/26 07:38:28;;;;;;;23.35;14.27;;;;;;;;;;4970112;28;20043;-76
2021/06/26 07:40:53;;;;;;;18.45;12.68;;;;;;;;;;5001071;28;20181;-76
2021/06/26 07:43:19;;;;;;;22.77;14.02;;;;;;;;;;4968701;28;20031;-75
2021/06/26 07:45:45;;;;;;;19.70;13.30;;;;;;;;;;4970068;28;20035;-76
2021/06/26 07:48:10;;;;;;;21.25;14.90;;;;;;;;;;4970093;28;20034;-74
2021/06/26 07:50:36;;;;;;;22.85;13.85;;;;;;;;;;4969413;28;20503;-75
2021/06/26 07:53:01;;;;;;;17.52;14.02;;;;;;;;;;4968720;28;20106;-76
2021/06/26 07:55:29;;;;;;;20.77;14.45;;;;;;;;;;4968563;28;20055;-76
2021/06/26 07:57:55;;;;;;;20.40;13.85;;;;;;;;;;4968526;28;20035;-76
2021/06/26 08:00:21;;;;;;;20.55;13.70;;;;;;;;;;4970318;28;20135;-75
2021/06/26 08:02:47;;;;;;;28.60;15.45;;;;;;;;;;4984897;28;20113;-75
2021/06/26 08:05:13;;;;;;;21.58;14.93;;;;;;;;;;4970241;28;20026;-75
2021/06/26 08:07:39;;;;;;;17.80;14.25;;;;;;;;;;4968661;28;20034;-76
2021/06/26 08:10:05;;;;;;;19.42;14.05;;;;;;;;;;4970343;28;20031;-75
2021/06/26 08:12:32;;;;;;;16.50;12.20;;;;;;;;;;4968289;28;20062;-74
2021/06/26 08:14:58;;;;;;;21.17;13.45;;;;;;;;;;4970294;28;20260;-74
2021/06/26 08:17:23;;;;;;;15.43;12.25;;;;;;;;;;4968531;28;20404;-74
2021/06/26 08:19:49;;;;;;;17.88;12.07;;;;;;;;;;4969945;28;20038;-75
2021/06/26 08:22:14;;;;;;;17.38;12.88;;;;;;;;;;4970106;28;20106;-76
2021/06/26 08:24:40;;;;;;;16.40;12.60;;;;;;;;;;4986314;28;20035;-75
2021/06/26 08:27:06;;;;;;;18.95;14.05;;;;;;;;;;4973137;28;20094;-75
2021/06/26 08:29:32;;;;;;;18.60;12.85;;;;;;;;;;4973502;28;20027;-75
2021/06/26 08:31:57;;;;;;;21.05;12.75;;;;;;;;;;4988057;28;20034;-76
2021/06/26 08:34:23;;;;;;;20.02;11.98;;;;;;;;;;4973684;28;20038;-75
2021/06/26 08:36:50;;;;;;;19.42;11.23;;;;;;;;;;5004478;28;20086;-76
2021/06/26 08:39:19;;;;;;;19.90;11.85;;;;;;;;;;4973910;28;20042;-75
2021/06/26 08:41:48;;;;;;;19.20;11.98;;;;;;;;;;4971970;28;20545;-74
2021/06/26 08:44:14;;;;;;;12.90;10.52;;;;;;;;;;4972024;28;20123;-75
2021/06/26 08:46:44;;;;;;;16.98;14.52;;;;;;;;;;4972977;28;20043;-75
2021/06/26 08:49:10;;;;;;;17.17;11.65;;;;;;;;;;4972172;28;20312;-76
2021/06/26 08:51:37;;;;;;;13.57;11.88;;;;;;;;;;4973000;28;20023;-75
2021/06/26 08:54:21;;;;;;;16.98;11.70;;;;;;;;;;4973154;28;20050;-77
2021/06/26 08:56:48;;;;;;;13.18;10.40;;;;;;;;;;4999529;28;20073;-75
2021/06/26 08:59:14;;;;;;;22.23;11.57;;;;;;;;;;4973258;28;20126;-74
2021/06/26 09:01:41;;;;;;;14.82;9.85;;;;;;;;;;4973197;28;20034;-75
2021/06/26 09:04:13;;;;;;;14.00;9.60;;;;;;;;;;4973034;28;20061;-75
2021/06/26 09:06:53;;;;;;;14.05;9.95;;;;;;;;;;4971576;28;20445;-75
2021/06/26 09:09:36;;;;;;;12.35;9.98;;;;;;;;;;4973019;28;20030;-75
2021/06/26 09:12:09;;;;;;;14.40;10.23;;;;;;;;;;4986983;28;20046;-75
2021/06/26 09:14:37;;;;;;;14.75;10.90;;;;;;;;;;4973094;28;20097;-75
2021/06/26 09:17:04;;;;;;;18.92;10.75;;;;;;;;;;4972741;28;20030;-75
2021/06/26 09:19:31;;;;;;;17.33;10.50;;;;;;;;;;4972820;28;20030;-75
2021/06/26 09:22:13;;;;;;;16.20;10.48;;;;;;;;;;4972620;28;20054;-76
2021/06/26 09:24:45;;;;;;;16.33;11.07;;;;;;;;;;4972143;28;20118;-76
2021/06/26 09:27:14;;;;;;;12.52;10.07;;;;;;;;;;4972636;28;20050;-75
2021/06/26 09:29:54;;;;;;;15.00;9.60;;;;;;;;;;4972501;28;20037;-75
2021/06/26 09:32:28;;;;;;;13.82;9.85;;;;;;;;;;4972709;28;20050;-74
2021/06/26 09:34:55;;;;;;;13.63;10.40;;;;;;;;;;4986328;28;20363;-75
2021/06/26 09:37:23;;;;;;;14.15;10.02;;;;;;;;;;4971961;28;20035;-75
2021/06/26 09:39:51;;;;;;;10.98;8.70;;;;;;;;;;4972382;28;20040;-74
2021/06/26 09:42:39;;;;;;;11.30;8.35;;;;;;;;;;4970885;28;20026;-75
2021/06/26 09:45:10;;;;;;;11.55;8.30;;;;;;;;;;4972164;28;20101;-75
2021/06/26 09:47:41;;;;;;;11.45;7.90;;;;;;;;;;4970472;28;20019;-76
2021/06/26 09:50:08;;;;;;;10.25;8.88;;;;;;;;;;5003142;28;20391;-76
2021/06/26 09:52:41;;;;;;;7.93;7.00;;;;;;;;;;4972008;28;20054;-75
2021/06/26 09:55:12;;;;;;;10.43;7.85;;;;;;;;;;4971570;28;20039;-75
2021/06/26 09:57:38;;;;;;;11.20;7.18;;;;;;;;;;4986318;28;20027;-74
2021/06/26 10:00:04;;;;;;;12.75;7.68;;;;;;;;;;4971790;28;20061;-74
2021/06/26 10:02:30;;;;;;;12.73;8.57;;;;;;;;;;4986694;28;20019;-75
2021/06/26 10:04:57;;;;;;;12.05;8.38;;;;;;;;;;4970149;28;20106;-76
2021/06/26 10:07:23;;;;;;;11.40;8.63;;;;;;;;;;4986565;28;20027;-75
2021/06/26 10:09:48;;;;;;;9.55;7.90;;;;;;;;;;4986562;28;20503;-75
2021/06/26 10:12:15;;;;;;;10.00;8.15;;;;;;;;;;4972044;28;20027;-76
2021/06/26 10:14:42;;;;;;;11.18;8.30;;;;;;;;;;4969958;28;20026;-75
2021/06/26 10:17:08;;;;;;;11.35;8.30;;;;;;;;;;4970249;28;20423;-74
2021/06/26 10:19:36;;;;;;;11.95;8.00;;;;;;;;;;4971996;28;20471;-75
2021/06/26 10:22:02;;;;;;;10.32;7.78;;;;;;;;;;4970481;28;20122;-76
2021/06/26 10:24:28;;;;;;;9.50;7.30;;;;;;;;;;4971573;28;20106;-74
2021/06/26 10:26:53;;;;;;;12.07;8.00;;;;;;;;;;4986035;28;20133;-75
2021/06/26 10:29:32;;;;;;;13.07;8.27;;;;;;;;;;4986467;28;20027;-76
2021/06/26 10:32:09;;;;;;;10.68;8.15;;;;;;;;;;4971255;28;20033;-75
2021/06/26 10:34:55;;;;;;;17.85;10.48;;;;;;;;;;4971469;28;20034;-76
2021/06/26 10:37:22;;;;;;;16.88;8.20;;;;;;;;;;4986011;28;20094;-76
2021/06/26 10:40:05;;;;;;;8.73;6.57;;;;;;;;;;5001928;28;20033;-76
2021/06/26 10:42:34;;;;;;;14.02;9.10;;;;;;;;;;4986063;28;20046;-75
2021/06/26 10:45:02;;;;;;;13.15;6.70;;;;;;;;;;4968941;28;20062;-77
2021/06/26 10:47:35;;;;;;;8.00;6.30;;;;;;;;;;4971279;28;20027;-75
2021/06/26 10:50:15;;;;;;;7.32;6.25;;;;;;;;;;4970841;28;20049;-75
2021/06/26 10:53:09;;;;;;;8.20;6.57;;;;;;;;;;4971003;28;20483;-75
2021/06/26 10:55:38;;;;;;;8.30;6.88;;;;;;;;;;4969544;28;20317;-76
2021/06/26 10:58:06;;;;;;;12.77;6.43;;;;;;;;;;4971036;28;20318;-77
2021/06/26 11:00:38;;;;;;;7.95;5.32;;;;;;;;;;4971043;28;20061;-80
2021/06/26 11:03:06;;;;;;;7.40;5.60;;;;;;;;;;4971003;28;20117;-80
2021/06/26 11:05:36;;;;;;;9.45;7.95;;;;;;;;;;4972745;28;20023;-77
2021/06/26 11:08:13;;;;;;;7.38;6.63;;;;;;;;;;4971070;28;20015;-77
2021/06/26 11:10:53;;;;;;;8.18;6.30;;;;;;;;;;4985254;28;20037;-74
2021/06/26 11:13:20;;;;;;;11.27;7.10;;;;;;;;;;4970577;28;20034;-76
2021/06/26 11:15:46;;;;;;;9.30;7.10;;;;;;;;;;4968886;28;20034;-76
2021/06/26 11:18:21;;;;;;;11.27;7.78;;;;;;;;;;4970373;28;20023;-76
2021/06/26 11:20:46;;;;;;;11.63;6.90;;;;;;;;;;4970263;28;20358;-75
2021/06/26 11:23:17;;;;;;;10.45;6.95;;;;;;;;;;4970401;28;20379;-75
2021/06/26 11:25:44;;;;;;;12.13;7.32;;;;;;;;;;5001038;28;20458;-75
2021/06/26 11:28:15;;;;;;;10.07;6.43;;;;;;;;;;4985061;28;20031;-76
2021/06/26 11:30:43;;;;;;;8.60;6.43;;;;;;;;;;4970355;28;20545;-74
2021/06/26 11:33:09;;;;;;;12.95;10.68;;;;;;;;;;4970546;28;20088;-75
2021/06/26 11:35:37;;;;;;;7.72;6.57;;;;;;;;;;4970393;28;20030;-76
2021/06/26 11:38:03;;;;;;;4.95;4.45;;;;;;;;;;4970310;28;20059;-76
2021/06/26 11:40:31;;;;;;;5.20;4.40;;;;;;;;;;4969958;28;20050;-74
2021/06/26 11:43:02;;;;;;;6.70;3.60;;;;;;;;;;4970207;28;20493;-75
2021/06/26 11:45:31;;;;;;;;;;;;;;;;;;4970455;28;20059;-75
2021/06/26 11:48:23;;;;;;;5.88;4.22;;;;;;;;;;5001109;28;19910;-76
2021/06/26 11:50:56;;;;;;;5.00;4.15;;;;;;;;;;4967634;28;20034;-74
2021/06/26 11:53:24;;;;;;;5.80;4.25;;;;;;;;;;4970328;28;20426;-75
2021/06/26 11:56:04;;;;;;;6.53;5.18;;;;;;;;;;4969505;28;20058;-76
2021/06/26 11:58:40;;;;;;;7.15;4.22;;;;;;;;;;4969871;28;20023;-75
2021/06/26 12:01:06;;;;;;;4.63;4.22;;;;;;;;;;4972411;28;20030;-75
2021/06/26 12:03:33;;;;;;;4.78;4.20;;;;;;;;;;4988938;28;20033;-75
2021/06/26 12:06:01;;;;;;;7.13;4.97;;;;;;;;;;4988656;28;20394;-75
2021/06/26 12:08:28;;;;;;;6.55;4.18;;;;;;;;;;4972814;28;20050;-75
2021/06/26 12:10:54;;;;;;;12.82;9.10;;;;;;;;;;4988297;28;20035;-76
2021/06/26 12:13:20;;;;;;;7.22;5.60;;;;;;;;;;4974006;28;20081;-76
2021/06/26 12:15:46;;;;;;;6.30;4.50;;;;;;;;;;4974023;28;20084;-76
2021/06/26 12:18:13;;;;;;;10.52;3.85;;;;;;;;;;4972491;28;20479;-74
2021/06/26 12:20:39;;;;;;;6.25;3.72;;;;;;;;;;4973777;28;20363;-75
2021/06/26 12:23:13;;;;;;;9.20;4.30;;;;;;;;;;4971814;28;20019;-75
2021/06/26 12:25:41;;;;;;;4.80;3.58;;;;;;;;;;4988166;28;20050;-75
2021/06/26 12:28:11;;;;;;;4.65;3.50;;;;;;;;;;4973090;28;20862;-74
2021/06/26 12:30:41;;;;;;;5.13;3.40;;;;;;;;;;4973772;28;20391;-75
2021/06/26 12:33:14;;;;;;;4.60;4.13;;;;;;;;;;4973319;28;20031;-75
2021/06/26 12:35:40;;;;;;;8.68;5.38;;;;;;;;;;4988101;28;20265;-76
2021/06/26 12:38:07;;;;;;;7.53;4.70;;;;;;;;;;4973111;28;20027;-75
2021/06/26 12:40:42;;;;;;;5.50;4.45;;;;;;;;;;4972779;28;20026;-76
2021/06/26 12:43:11;;;;;;;7.53;3.95;;;;;;;;;;4971349;28;20026;-76
2021/06/26 12:45:44;;;;;;;5.13;4.47;;;;;;;;;;4973028;28;20114;-76
2021/06/26 12:48:14;;;;;;;6.85;4.90;;;;;;;;;;4973350;28;20586;-77
2021/06/26 12:51:02;;;;;;;9.50;4.57;;;;;;;;;;4971915;28;20030;-76
2021/06/26 12:53:38;;;;;;;4.97;3.90;;;;;;;;;;4972888;28;20558;-75
2021/06/26 12:56:27;;;;;;;5.93;4.07;;;;;;;;;;4971191;28;20055;-76
2021/06/26 12:58:57;;;;;;;6.43;4.15;;;;;;;;;;4971957;28;20069;-76
2021/06/26 13:01:46;;;;;;;5.95;4.28;;;;;;;;;;4969808;28;20034;-77
2021/06/26 13:04:38;;;;;;;5.95;4.32;;;;;;;;;;5003941;28;20491;-76
2021/06/26 13:07:03;;;;;;;6.63;4.13;;;;;;;;;;4972592;28;20099;-76
2021/06/26 13:09:49;;;;;;;4.70;4.25;;;;;;;;;;4971240;28;20042;-76
2021/06/26 13:12:23;;;;;;;4.97;3.85;;;;;;;;;;4972816;28;20023;-76
2021/06/26 13:14:57;;;;;;;5.05;3.45;;;;;;;;;;4972760;28;20510;-76
2021/06/26 13:17:25;;;;;;;4.78;3.22;;;;;;;;;;4972411;28;20399;-76
2021/06/26 13:19:52;;;;;;;6.40;3.50;;;;;;;;;;4987473;28;20035;-74
2021/06/26 13:22:20;;;;;;;3.67;3.17;;;;;;;;;;4971223;28;20031;-75
2021/06/26 13:24:48;;;;;;;10.70;7.07;;;;;;;;;;4972188;28;20035;-76
2021/06/26 13:27:13;;;;;;;5.65;3.90;;;;;;;;;;4986685;28;20034;-77
2021/06/26 13:29:39;;;;;;;5.72;3.50;;;;;;;;;;4972449;28;20038;-76
2021/06/26 13:32:06;;;;;;;5.63;3.70;;;;;;;;;;4970493;28;20058;-75
2021/06/26 13:34:31;;;;;;;4.85;3.72;;;;;;;;;;4972624;28;20066;-75
2021/06/26 13:36:57;;;;;;;5.72;3.60;;;;;;;;;;4987305;28;20058;-75
2021/06/26 13:39:23;;;;;;;5.70;3.42;;;;;;;;;;4972547;28;20089;-76
2021/06/26 13:41:49;;;;;;;5.30;3.67;;;;;;;;;;4972525;28;20035;-76
2021/06/26 13:44:15;;;;;;;5.07;3.28;;;;;;;;;;4971034;28;20113;-75
2021/06/26 13:46:41;;;;;;;6.03;4.10;;;;;;;;;;4972320;28;20415;-76
2021/06/26 13:49:07;;;;;;;6.25;4.20;;;;;;;;;;4971726;28;20026;-76
2021/06/26 13:51:33;;;;;;;5.05;3.70;;;;;;;;;;4971901;28;20061;-76
2021/06/26 13:53:58;;;;;;;4.85;3.72;;;;;;;;;;4969923;28;20494;-75
2021/06/26 13:56:24;;;;;;;9.68;4.40;;;;;;;;;;4971863;28;20046;-75
2021/06/26 13:58:50;;;;;;;9.80;5.35;;;;;;;;;;4986799;28;20035;-75
2021/06/26 14:01:17;;;;;;;5.45;4.90;;;;;;;;;;4971891;28;20431;-75
2021/06/26 14:03:43;;;;;;;6.05;4.30;;;;;;;;;;4970826;28;20383;-75
2021/06/26 14:06:08;;;;;;;7.88;4.93;;;;;;;;;;4970375;28;20038;-76
2021/06/26 14:08:34;;;;;;;7.38;5.75;;;;;;;;;;4972062;28;20023;-75
2021/06/26 14:11:02;;;;;;;8.63;5.80;;;;;;;;;;4971590;28;20019;-74
2021/06/26 14:13:29;;;;;;;10.88;5.80;;;;;;;;;;4971877;28;20033;-75
2021/06/26 14:15:54;;;;;;;7.18;5.65;;;;;;;;;;4971549;28;20037;-75
2021/06/26 14:18:20;;;;;;;6.70;4.53;;;;;;;;;;4987397;28;20026;-75
2021/06/26 14:20:46;;;;;;;7.60;5.10;;;;;;;;;;5005148;28;20073;-75
2021/06/26 14:23:12;;;;;;;5.75;4.72;;;;;;;;;;4985770;28;20023;-75
2021/06/26 14:25:37;;;;;;;6.35;4.43;;;;;;;;;;4971027;28;20023;-75